Time;durP1;ratioP1;P1;durP2;ratioP2;P2;SDS_P1;SDS_P2;PMS_P1;PMS_P2;Temp;Humidity;BMP_temperature;BMP_pressure;BME280_temperature;BME280_humidity;BME280_pressure;Samples;Min_cycle;Max_cycle;Signal;HPM_P1;HPM_P2
2022/01/09 00:01:22;;;;;;;;;;;;;;;;;;4995007;28;19929;-77
2022/01/09 00:03:49;;;;;;;;;;;;;;;;;;4990891;28;20328;-77
2022/01/09 00:06:16;;;;;;;;;;;;;;;;;;4986557;28;19926;-77
2022/01/09 00:08:44;;;;;;;;;;;;;;;;;;4995521;28;19980;-78
2022/01/09 00:11:11;;;;;;;;;;;;;;;;;;4998032;28;19934;-77
2022/01/09 00:13:38;;;;;;;;;;;;;;;;;;4994772;28;19925;-77
2022/01/09 00:16:05;;;;;;;;;;;;;;;;;;4982087;28;19940;-77
2022/01/09 00:18:32;;;;;;;;;;;;;;;;;;4992916;28;20032;-78
2022/01/09 00:20:59;;;;;;;;;;;;;;;;;;4990230;28;20025;-78
2022/01/09 00:23:26;;;;;;;;;;;;;;;;;;4997103;28;20385;-79
2022/01/09 00:25:53;;;;;;;;;;;;;;;;;;4983980;28;20017;-79
2022/01/09 00:28:19;;;;;;;;;;;;;;;;;;4996460;28;19932;-78
2022/01/09 00:30:46;;;;;;;;;;;;;;;;;;4999811;28;19930;-77
2022/01/09 00:33:13;;;;;;;;;;;;;;;;;;4998445;28;19926;-79
2022/01/09 00:35:40;;;;;;;;;;;;;;;;;;5000460;28;20044;-77
2022/01/09 00:38:07;;;;;;;;;;;;;;;;;;4996876;28;19965;-78
2022/01/09 00:40:35;;;;;;;;;;;;;;;;;;4988906;28;19991;-77
2022/01/09 00:43:02;;;;;;;;;;;;;;;;;;4998661;28;20064;-78
2022/01/09 00:45:28;;;;;;;;;;;;;;;;;;4995436;28;20025;-79
2022/01/09 00:47:56;;;;;;;;;;;;;;;;;;4999137;28;20355;-79
2022/01/09 00:50:23;;;;;;;;;;;;;;;;;;4993957;28;19986;-77
2022/01/09 00:52:50;;;;;;;;;;;;;;;;;;4994332;28;19925;-77
2022/01/09 00:55:18;;;;;;;;;;;;;;;;;;4984660;28;19926;-78
2022/01/09 00:57:45;;;;;;;;;;;;;;;;;;4986470;28;20400;-78
2022/01/09 01:00:12;;;;;;;;;;;;;;;;;;4988601;28;20551;-78
2022/01/09 01:02:39;;;;;;;;;;;;;;;;;;4985691;28;20345;-77
2022/01/09 01:05:06;;;;;;;;;;;;;;;;;;4989164;28;20679;-78
2022/01/09 01:07:33;;;;;;;;;;;;;;;;;;4990995;28;19997;-79
2022/01/09 01:10:00;;;;;;;;;;;;;;;;;;4985642;28;19937;-78
2022/01/09 01:12:27;;;;;;;;;;;;;;;;;;5003948;28;19931;-76
2022/01/09 01:14:54;;;;;;;;;;;;;;;;;;4988788;28;19926;-76
2022/01/09 01:17:20;;;;;;;;;;;;;;;;;;4996004;28;20009;-76
2022/01/09 01:19:47;;;;;;;;;;;;;;;;;;5001839;28;19925;-78
2022/01/09 01:22:14;;;;;;;;;;;;;;;;;;4997291;28;19989;-79
2022/01/09 01:24:41;;;;;;;;;;;;;;;;;;4996986;28;20367;-77
2022/01/09 01:27:08;;;;;;;;;;;;;;;;;;4998972;28;19993;-78
2022/01/09 01:29:36;;;;;;;;;;;;;;;;;;5001715;28;19932;-77
2022/01/09 01:32:03;;;;;;;;;;;;;;;;;;4995751;28;20013;-78
2022/01/09 01:34:30;;;;;;;;;;;;;;;;;;4993260;28;20036;-77
2022/01/09 01:36:57;;;;;;;;;;;;;;;;;;4998891;28;19936;-77
2022/01/09 01:39:24;;;;;;;;;;;;;;;;;;4997894;28;19932;-77
2022/01/09 01:41:51;;;;;;;;;;;;;;;;;;4996077;28;19997;-78
2022/01/09 01:44:18;;;;;;;;;;;;;;;;;;4985882;28;19985;-77
2022/01/09 01:46:45;;;;;;;;;;;;;;;;;;4996783;28;20024;-78
2022/01/09 01:49:13;;;;;;;;;;;;;;;;;;4996444;28;19933;-78
2022/01/09 01:51:42;;;;;;;;;;;;;;;;;;4994662;28;19926;-77
2022/01/09 01:54:08;;;;;;;;;;;;;;;;;;4992323;28;19941;-77
2022/01/09 01:56:35;;;;;;;;;;;;;;;;;;4994427;28;20341;-78
2022/01/09 01:59:02;;;;;;;;;;;;;;;;;;4990963;28;20488;-78
2022/01/09 02:01:29;;;;;;;;;;;;;;;;;;4990206;28;19929;-78
2022/01/09 02:03:56;;;;;;;;;;;;;;;;;;4999173;28;20316;-77
2022/01/09 02:06:23;;;;;;;;;;;;;;;;;;4993751;28;20015;-78
2022/01/09 02:08:50;;;;;;;;;;;;;;;;;;5000061;28;19972;-77
2022/01/09 02:11:17;;;;;;;;;;;;;;;;;;4994352;28;19926;-77
2022/01/09 02:13:46;;;;;;;;;;;;;;;;;;5003382;28;19990;-78
2022/01/09 02:16:17;;;;;;;;;;;;;;;;;;4997139;28;19957;-78
2022/01/09 02:18:44;;;;;;;;;;;;;;;;;;5003107;28;19929;-78
2022/01/09 02:21:11;;;;;;;;;;;;;;;;;;4997978;28;19973;-77
2022/01/09 02:23:40;;;;;;;;;;;;;;;;;;5003192;28;19926;-78
2022/01/09 02:26:07;;;;;;;;;;;;;;;;;;4994434;28;19972;-79
2022/01/09 02:28:34;;;;;;;;;;;;;;;;;;4996152;28;19926;-77
2022/01/09 02:31:01;;;;;;;;;;;;;;;;;;4992111;28;19930;-77
2022/01/09 02:33:28;;;;;;;;;;;;;;;;;;4995954;28;19933;-77
2022/01/09 02:35:56;;;;;;;;;;;;;;;;;;4997745;28;19933;-77
2022/01/09 02:38:23;;;;;;;;;;;;;;;;;;4998321;28;19929;-77
2022/01/09 02:40:50;;;;;;;;;;;;;;;;;;4995207;28;20029;-78
2022/01/09 02:43:17;;;;;;;;;;;;;;;;;;4993248;28;20006;-78
2022/01/09 02:45:47;;;;;;;;;;;;;;;;;;4996921;28;20016;-76
2022/01/09 02:48:14;;;;;;;;;;;;;;;;;;4992865;28;20012;-78
2022/01/09 02:50:51;;;;;;;;;;;;;;;;;;4993696;28;19968;-78
2022/01/09 02:53:20;;;;;;;;;;;;;;;;;;4998403;28;19926;-77
2022/01/09 02:55:47;;;;;;;;;;;;;;;;;;4995359;28;19926;-78
2022/01/09 02:58:14;;;;;;;;;;;;;;;;;;5007448;28;19926;-79
2022/01/09 03:00:42;;;;;;;;;;;;;;;;;;5009495;28;20266;-78
2022/01/09 03:03:09;;;;;;;;;;;;;;;;;;4995847;28;19933;-78
2022/01/09 03:05:36;;;;;;;;;;;;;;;;;;5000412;28;19964;-78
2022/01/09 03:08:03;;;;;;;;;;;;;;;;;;4997241;28;19983;-79
2022/01/09 03:10:30;;;;;;;;;;;;;;;;;;4999196;28;19961;-78
2022/01/09 03:12:57;;;;;;;;;;;;;;;;;;4987158;28;19968;-76
2022/01/09 03:15:24;;;;;;;;;;;;;;;;;;4990887;28;19925;-75
2022/01/09 03:17:52;;;;;;;;;;;;;;;;;;4989852;28;19925;-76
2022/01/09 03:20:19;;;;;;;;;;;;;;;;;;4988015;28;19925;-77
2022/01/09 03:22:48;;;;;;;;;;;;;;;;;;4996717;28;19957;-77
2022/01/09 03:25:15;;;;;;;;;;;;;;;;;;4986314;28;19934;-78
2022/01/09 03:27:42;;;;;;;;;;;;;;;;;;5005812;28;19965;-78
2022/01/09 03:30:09;;;;;;;;;;;;;;;;;;5004062;28;19943;-79
2022/01/09 03:32:36;;;;;;;;;;;;;;;;;;5002948;28;19964;-78
2022/01/09 03:35:03;;;;;;;;;;;;;;;;;;5001323;28;20044;-77
2022/01/09 03:37:30;;;;;;;;;;;;;;;;;;5000528;28;19985;-77
2022/01/09 03:39:57;;;;;;;;;;;;;;;;;;5003602;28;19988;-79
2022/01/09 03:42:24;;;;;;;;;;;;;;;;;;4996298;28;20013;-77
2022/01/09 03:44:51;;;;;;;;;;;;;;;;;;4995893;28;19961;-78
2022/01/09 03:47:18;;;;;;;;;;;;;;;;;;4994011;28;20325;-77
2022/01/09 03:49:45;;;;;;;;;;;;;;;;;;5004908;28;19969;-78
2022/01/09 03:52:13;;;;;;;;;;;;;;;;;;4996578;28;19964;-76
2022/01/09 03:54:40;;;;;;;;;;;;;;;;;;4999460;28;19932;-78
2022/01/09 03:57:07;;;;;;;;;;;;;;;;;;5003890;28;19989;-77
2022/01/09 03:59:34;;;;;;;;;;;;;;;;;;4994301;28;19925;-78
2022/01/09 04:02:02;;;;;;;;;;;;;;;;;;4993607;28;19932;-78
2022/01/09 04:04:29;;;;;;;;;;;;;;;;;;4993765;28;19926;-77
2022/01/09 04:06:56;;;;;;;;;;;;;;;;;;5004277;28;20400;-79
2022/01/09 04:09:29;;;;;;;;;;;;;;;;;;4999816;28;19933;-78
2022/01/09 04:12:02;;;;;;;;;;;;;;;;;;5001480;28;19977;-79
2022/01/09 04:14:29;;;;;;;;;;;;;;;;;;4996571;28;19937;-78
2022/01/09 04:16:59;;;;;;;;;;;;;;;;;;4990878;28;20364;-76
2022/01/09 04:19:26;;;;;;;;;;;;;;;;;;4990920;28;19961;-76
2022/01/09 04:21:53;;;;;;;;;;;;;;;;;;4994016;28;19929;-76
2022/01/09 04:24:20;;;;;;;;;;;;;;;;;;4976762;28;20288;-77
2022/01/09 04:26:47;;;;;;;;;;;;;;;;;;4988651;28;19926;-77
2022/01/09 04:29:14;;;;;;;;;;;;;;;;;;5003621;28;19994;-78
2022/01/09 04:31:42;;;;;;;;;;;;;;;;;;5001997;28;19972;-78
2022/01/09 04:34:09;;;;;;;;;;;;;;;;;;5002692;28;20381;-77
2022/01/09 04:36:35;;;;;;;;;;;;;;;;;;4994131;28;19933;-77
2022/01/09 04:39:02;;;;;;;;;;;;;;;;;;4995606;28;20396;-76
2022/01/09 04:41:30;;;;;;;;;;;;;;;;;;4992766;28;19929;-77
2022/01/09 04:43:57;;;;;;;;;;;;;;;;;;4996764;28;20415;-77
2022/01/09 04:46:30;;;;;;;;;;;;;;;;;;4995204;28;20008;-77
2022/01/09 04:48:57;;;;;;;;;;;;;;;;;;5000497;28;20392;-77
2022/01/09 04:51:24;;;;;;;;;;;;;;;;;;4997174;28;19930;-77
2022/01/09 04:53:51;;;;;;;;;;;;;;;;;;4983548;28;19988;-77
2022/01/09 04:56:18;;;;;;;;;;;;;;;;;;4993166;28;20016;-78
2022/01/09 04:58:45;;;;;;;;;;;;;;;;;;4996204;28;19927;-78
2022/01/09 05:01:12;;;;;;;;;;;;;;;;;;4995168;28;20014;-77
2022/01/09 05:03:39;;;;;;;;;;;;;;;;;;5002303;28;20029;-78
2022/01/09 05:06:06;;;;;;;;;;;;;;;;;;4998784;28;19981;-79
2022/01/09 05:08:33;;;;;;;;;;;;;;;;;;5005223;28;19926;-78
2022/01/09 05:11:00;;;;;;;;;;;;;;;;;;5001149;28;20400;-78
2022/01/09 05:13:27;;;;;;;;;;;;;;;;;;4994513;28;20016;-78
2022/01/09 05:15:55;;;;;;;;;;;;;;;;;;4988808;28;19926;-78
2022/01/09 05:18:22;;;;;;;;;;;;;;;;;;4999708;28;19940;-78
2022/01/09 05:20:49;;;;;;;;;;;;;;;;;;4995624;28;19926;-78
2022/01/09 05:23:15;;;;;;;;;;;;;;;;;;5000852;28;19986;-78
2022/01/09 05:25:42;;;;;;;;;;;;;;;;;;4995266;28;19940;-78
2022/01/09 05:28:11;;;;;;;;;;;;;;;;;;5005895;28;20401;-78
2022/01/09 05:30:38;;;;;;;;;;;;;;;;;;4992760;28;19932;-78
2022/01/09 05:33:05;;;;;;;;;;;;;;;;;;4999591;28;19985;-77
2022/01/09 05:35:32;;;;;;;;;;;;;;;;;;4984378;28;20013;-76
2022/01/09 05:37:59;;;;;;;;;;;;;;;;;;4989043;28;19934;-78
2022/01/09 05:40:26;;;;;;;;;;;;;;;;;;4999787;28;20036;-77
2022/01/09 05:42:53;;;;;;;;;;;;;;;;;;4991155;28;20017;-77
2022/01/09 05:45:20;;;;;;;;;;;;;;;;;;4990770;28;19942;-78
2022/01/09 05:47:47;;;;;;;;;;;;;;;;;;4996179;28;20012;-78
2022/01/09 05:50:14;;;;;;;;;;;;;;;;;;5001816;28;19997;-78
2022/01/09 05:52:41;;;;;;;;;;;;;;;;;;4992206;28;19993;-78
2022/01/09 05:55:08;;;;;;;;;;;;;;;;;;5001921;28;19953;-78
2022/01/09 05:57:35;;;;;;;;;;;;;;;;;;5000155;28;20020;-78
2022/01/09 06:00:02;;;;;;;;;;;;;;;;;;4995997;28;19926;-78
2022/01/09 06:02:29;;;;;;;;;;;;;;;;;;5002564;28;19932;-78
2022/01/09 06:04:56;;;;;;;;;;;;;;;;;;5000713;28;20021;-79
2022/01/09 06:07:23;;;;;;;;;;;;;;;;;;5014371;28;19985;-80
2022/01/09 06:09:50;;;;;;;;;;;;;;;;;;5015927;28;19953;-80
2022/01/09 06:12:17;;;;;;;;;;;;;;;;;;5012646;28;19932;-79
2022/01/09 06:14:44;;;;;;;;;;;;;;;;;;4997627;28;19972;-79
2022/01/09 06:17:10;;;;;;;;;;;;;;;;;;4997672;28;19972;-78
2022/01/09 06:19:37;;;;;;;;;;;;;;;;;;5008767;28;19926;-79
2022/01/09 06:22:04;;;;;;;;;;;;;;;;;;5000630;28;19989;-78
2022/01/09 06:24:31;;;;;;;;;;;;;;;;;;4994440;28;19968;-78
2022/01/09 06:26:58;;;;;;;;;;;;;;;;;;4991046;28;20029;-78
2022/01/09 06:29:25;;;;;;;;;;;;;;;;;;4987770;28;20497;-78
2022/01/09 06:31:52;;;;;;;;;;;;;;;;;;4994228;28;19945;-80
2022/01/09 06:34:19;;;;;;;;;;;;;;;;;;4998698;28;19933;-79
2022/01/09 06:36:46;;;;;;;;;;;;;;;;;;4990920;28;19965;-79
2022/01/09 06:39:13;;;;;;;;;;;;;;;;;;4995547;28;19961;-79
2022/01/09 06:41:40;;;;;;;;;;;;;;;;;;4995104;28;20468;-79
2022/01/09 06:44:07;;;;;;;;;;;;;;;;;;4986776;28;19933;-78
2022/01/09 06:46:34;;;;;;;;;;;;;;;;;;4992174;28;19926;-79
2022/01/09 06:49:02;;;;;;;;;;;;;;;;;;4994686;28;19926;-79
2022/01/09 06:51:29;;;;;;;;;;;;;;;;;;5000782;28;19925;-79
2022/01/09 06:53:56;;;;;;;;;;;;;;;;;;4991576;28;20013;-78
2022/01/09 06:56:23;;;;;;;;;;;;;;;;;;4995955;28;19925;-78
2022/01/09 06:58:49;;;;;;;;;;;;;;;;;;4995848;28;19940;-77
2022/01/09 07:01:16;;;;;;;;;;;;;;;;;;4992653;28;20395;-76
2022/01/09 07:03:43;;;;;;;;;;;;;;;;;;4982452;28;19932;-77
2022/01/09 07:06:11;;;;;;;;;;;;;;;;;;4991115;28;19936;-78
2022/01/09 07:08:38;;;;;;;;;;;;;;;;;;4994375;28;20053;-77
2022/01/09 07:11:05;;;;;;;;;;;;;;;;;;5001921;28;19925;-76
2022/01/09 07:13:32;;;;;;;;;;;;;;;;;;4994698;28;19926;-77
2022/01/09 07:15:58;;;;;;;;;;;;;;;;;;4996962;28;19926;-78
2022/01/09 07:18:28;;;;;;;;;;;;;;;;;;4994126;28;19926;-78
2022/01/09 07:20:55;;;;;;;;;;;;;;;;;;4993535;28;20239;-78
2022/01/09 07:23:22;;;;;;;;;;;;;;;;;;4981299;28;19926;-78
2022/01/09 07:25:49;;;;;;;;;;;;;;;;;;4996399;28;19925;-78
2022/01/09 07:28:16;;;;;;;;;;;;;;;;;;4999192;28;19930;-78
2022/01/09 07:30:43;;;;;;;;;;;;;;;;;;4998122;28;19925;-78
2022/01/09 07:33:09;;;;;;;;;;;;;;;;;;4989495;28;19940;-77
2022/01/09 07:35:36;;;;;;;;;;;;;;;;;;4985364;28;19933;-76
2022/01/09 07:38:03;;;;;;;;;;;;;;;;;;4989970;28;19926;-77
2022/01/09 07:40:30;;;;;;;;;;;;;;;;;;4991720;28;19926;-77
2022/01/09 07:42:57;;;;;;;;;;;;;;;;;;4985765;28;19926;-76
2022/01/09 07:45:27;;;;;;;;;;;;;;;;;;4977976;28;19940;-76
2022/01/09 07:47:54;;;;;;;;;;;;;;;;;;5000956;28;19926;-76
2022/01/09 07:50:22;;;;;;;;;;;;;;;;;;4992693;28;19926;-76
2022/01/09 07:52:49;;;;;;;;;;;;;;;;;;4984157;28;19933;-76
2022/01/09 07:55:18;;;;;;;;;;;;;;;;;;4977736;28;19936;-76
2022/01/09 07:57:45;;;;;;;;;;;;;;;;;;4981892;28;20425;-76
2022/01/09 08:00:12;;;;;;;;;;;;;;;;;;4978631;28;19932;-77
2022/01/09 08:02:39;;;;;;;;;;;;;;;;;;4992855;28;19932;-78
2022/01/09 08:05:06;;;;;;;;;;;;;;;;;;4981521;28;19941;-76
2022/01/09 08:07:33;;;;;;;;;;;;;;;;;;4982816;28;19926;-77
2022/01/09 08:10:00;;;;;;;;;;;;;;;;;;4985449;28;19926;-77
2022/01/09 08:12:27;;;;;;;;;;;;;;;;;;4987856;28;19926;-76
2022/01/09 08:14:54;;;;;;;;;;;;;;;;;;4981518;28;20395;-74
2022/01/09 08:17:21;;;;;;;;;;;;;;;;;;4982176;28;20384;-75
2022/01/09 08:19:48;;;;;;;;;;;;;;;;;;4978194;28;19940;-76
2022/01/09 08:22:15;;;;;;;;;;;;;;;;;;4985535;28;19938;-77
2022/01/09 08:24:42;;;;;;;;;;;;;;;;;;4988246;28;20024;-76
2022/01/09 08:27:09;;;;;;;;;;;;;;;;;;4986852;28;19941;-76
2022/01/09 08:29:37;;;;;;;;;;;;;;;;;;4989063;28;19930;-77
2022/01/09 08:32:04;;;;;;;;;;;;;;;;;;4989641;28;19933;-76
2022/01/09 08:34:31;;;;;;;;;;;;;;;;;;4989442;28;20016;-78
2022/01/09 08:36:58;;;;;;;;;;;;;;;;;;4989451;28;19982;-76
2022/01/09 08:39:25;;;;;;;;;;;;;;;;;;4987468;28;20025;-77
2022/01/09 08:41:52;;;;;;;;;;;;;;;;;;4998383;28;19926;-80
2022/01/09 08:44:19;;;;;;;;;;;;;;;;;;4996592;28;20345;-77
2022/01/09 08:46:46;;;;;;;;;;;;;;;;;;4989628;28;20296;-76
2022/01/09 08:49:13;;;;;;;;;;;;;;;;;;4992772;28;19934;-78
2022/01/09 08:51:40;;;;;;;;;;;;;;;;;;4996912;28;19926;-76
2022/01/09 08:54:07;;;;;;;;;;;;;;;;;;4986890;28;19934;-76
2022/01/09 08:56:36;;;;;;;;;;;;;;;;;;4992925;28;19932;-74
2022/01/09 08:59:03;;;;;;;;;;;;;;;;;;4988461;28;20014;-75
2022/01/09 09:01:30;;;;;;;;;;;;;;;;;;4989290;28;19933;-75
2022/01/09 09:03:58;;;;;;;;;;;;;;;;;;4981615;28;20004;-76
2022/01/09 09:06:25;;;;;;;;;;;;;;;;;;4982477;28;20518;-75
2022/01/09 09:08:51;;;;;;;;;;;;;;;;;;4988088;28;20016;-75
2022/01/09 09:11:18;;;;;;;;;;;;;;;;;;4994623;28;19934;-75
2022/01/09 09:13:45;;;;;;;;;;;;;;;;;;4987517;28;20411;-75
2022/01/09 09:16:12;;;;;;;;;;;;;;;;;;4989654;28;20522;-76
2022/01/09 09:18:39;;;;;;;;;;;;;;;;;;4980330;28;19926;-77
2022/01/09 09:21:06;;;;;;;;;;;;;;;;;;4988184;28;19977;-78
2022/01/09 09:23:33;;;;;;;;;;;;;;;;;;4984552;28;19926;-77
2022/01/09 09:26:00;;;;;;;;;;;;;;;;;;4987523;28;19926;-77
2022/01/09 09:28:27;;;;;;;;;;;;;;;;;;4984507;28;19926;-77
2022/01/09 09:30:54;;;;;;;;;;;;;;;;;;4984381;28;20395;-78
2022/01/09 09:33:21;;;;;;;;;;;;;;;;;;4989620;28;19993;-79
2022/01/09 09:35:48;;;;;;;;;;;;;;;;;;4987396;28;19934;-78
2022/01/09 09:38:15;;;;;;;;;;;;;;;;;;4987275;28;20017;-78
2022/01/09 09:40:42;;;;;;;;;;;;;;;;;;4983082;28;19926;-79
2022/01/09 09:43:09;;;;;;;;;;;;;;;;;;4980791;28;19933;-78
2022/01/09 09:45:36;;;;;;;;;;;;;;;;;;4982833;28;20304;-77
2022/01/09 09:48:03;;;;;;;;;;;;;;;;;;4983252;28;19968;-77
2022/01/09 09:50:30;;;;;;;;;;;;;;;;;;4985956;28;19926;-80
2022/01/09 09:52:58;;;;;;;;;;;;;;;;;;4989301;28;19940;-78
2022/01/09 09:55:25;;;;;;;;;;;;;;;;;;4987747;28;20295;-79
2022/01/09 09:57:52;;;;;;;;;;;;;;;;;;4996873;28;19926;-78
2022/01/09 10:00:19;;;;;;;;;;;;;;;;;;4987822;28;19985;-77
2022/01/09 10:02:46;;;;;;;;;;;;;;;;;;4992568;28;20036;-78
2022/01/09 10:05:13;;;;;;;;;;;;;;;;;;4988585;28;19936;-79
2022/01/09 10:07:40;;;;;;;;;;;;;;;;;;4983084;28;19926;-74
2022/01/09 10:10:08;;;;;;;;;;;;;;;;;;4978834;28;20308;-73
2022/01/09 10:12:35;;;;;;;;;;;;;;;;;;4981109;28;19932;-73
2022/01/09 10:15:02;;;;;;;;;;;;;;;;;;4983521;28;19960;-74
2022/01/09 10:17:30;;;;;;;;;;;;;;;;;;4980770;28;19926;-75
2022/01/09 10:19:57;;;;;;;;;;;;;;;;;;4982684;28;19932;-75
2022/01/09 10:22:24;;;;;;;;;;;;;;;;;;4986766;28;19965;-74
2022/01/09 10:24:51;;;;;;;;;;;;;;;;;;4981784;28;19930;-71
2022/01/09 10:27:18;;;;;;;;;;;;;;;;;;4985207;28;19936;-75
2022/01/09 10:29:45;;;;;;;;;;;;;;;;;;4982828;28;19932;-74
2022/01/09 10:32:12;;;;;;;;;;;;;;;;;;4989261;28;20012;-76
2022/01/09 10:34:39;;;;;;;;;;;;;;;;;;4988173;28;19926;-79
2022/01/09 10:37:06;;;;;;;;;;;;;;;;;;4990297;28;20609;-78
2022/01/09 10:39:36;;;;;;;;;;;;;;;;;;4995020;28;20006;-77
2022/01/09 10:42:03;;;;;;;;;;;;;;;;;;4990212;28;20531;-78
2022/01/09 10:44:31;;;;;;;;;;;;;;;;;;4991337;28;19926;-76
2022/01/09 10:46:58;;;;;;;;;;;;;;;;;;4979786;28;19932;-75
2022/01/09 10:49:25;;;;;;;;;;;;;;;;;;4980341;28;20009;-76
2022/01/09 10:51:52;;;;;;;;;;;;;;;;;;4983818;28;19930;-74
2022/01/09 10:54:19;;;;;;;;;;;;;;;;;;4986405;28;20013;-75
2022/01/09 10:56:46;;;;;;;;;;;;;;;;;;4987118;28;19925;-75
2022/01/09 10:59:13;;;;;;;;;;;;;;;;;;4986974;28;19930;-78
2022/01/09 11:01:40;;;;;;;;;;;;;;;;;;5000969;28;19994;-81
2022/01/09 11:04:07;;;;;;;;;;;;;;;;;;5008363;28;19967;-78
2022/01/09 11:06:34;;;;;;;;;;;;;;;;;;5005189;28;19925;-76
2022/01/09 11:09:01;;;;;;;;;;;;;;;;;;4985960;28;20328;-76
2022/01/09 11:11:33;;;;;;;;;;;;;;;;;;4981011;28;19932;-75
2022/01/09 11:14:03;;;;;;;;;;;;;;;;;;4979448;28;20013;-75
2022/01/09 11:16:37;;;;;;;;;;;;;;;;;;4982062;28;20008;-77
2022/01/09 11:19:04;;;;;;;;;;;;;;;;;;4982608;28;19930;-75
2022/01/09 11:21:31;;;;;;;;;;;;;;;;;;4982214;28;19930;-75
2022/01/09 11:23:58;;;;;;;;;;;;;;;;;;4982639;28;20089;-76
2022/01/09 11:26:25;;;;;;;;;;;;;;;;;;4982433;28;19980;-77
2022/01/09 11:28:52;;;;;;;;;;;;;;;;;;4983377;28;19930;-76
2022/01/09 11:31:19;;;;;;;;;;;;;;;;;;4981543;28;19934;-76
2022/01/09 11:33:46;;;;;;;;;;;;;;;;;;4979980;28;19926;-76
2022/01/09 11:36:13;;;;;;;;;;;;;;;;;;4977034;28;20125;-77
2022/01/09 11:38:41;;;;;;;;;;;;;;;;;;4975158;28;19932;-77
2022/01/09 11:41:08;;;;;;;;;;;;;;;;;;4980162;28;20309;-76
2022/01/09 11:43:35;;;;;;;;;;;;;;;;;;4981282;28;20036;-76
2022/01/09 11:46:02;;;;;;;;;;;;;;;;;;4981081;28;20396;-75
2022/01/09 11:48:29;;;;;;;;;;;;;;;;;;4980110;28;19926;-76
2022/01/09 11:50:56;;;;;;;;;;;;;;;;;;4984426;28;19940;-75
2022/01/09 11:53:24;;;;;;;;;;;;;;;;;;4984625;28;19952;-76
2022/01/09 11:55:51;;;;;;;;;;;;;;;;;;4983899;28;19925;-76
2022/01/09 11:58:20;;;;;;;;;;;;;;;;;;4983273;28;19936;-76
2022/01/09 12:00:47;;;;;;;;;;;;;;;;;;4984153;28;19933;-76
2022/01/09 12:03:14;;;;;;;;;;;;;;;;;;4980905;28;20029;-77
2022/01/09 12:05:41;;;;;;;;;;;;;;;;;;4977735;28;19926;-75
2022/01/09 12:08:09;;;;;;;;;;;;;;;;;;4979874;28;19969;-76
2022/01/09 12:10:36;;;;;;;;;;;;;;;;;;4976000;28;20522;-76
2022/01/09 12:13:03;;;;;;;;;;;;;;;;;;4979263;28;20411;-75
2022/01/09 12:15:30;;;;;;;;;;;;;;;;;;4986627;28;20043;-77
2022/01/09 12:18:00;;;;;;;;;;;;;;;;;;4980120;28;20388;-74
2022/01/09 12:20:28;;;;;;;;;;;;;;;;;;4982422;28;19934;-74
2022/01/09 12:23:01;;;;;;;;;;;;;;;;;;4983822;28;20881;-74
2022/01/09 12:25:29;;;;;;;;;;;;;;;;;;4983816;28;19940;-74
2022/01/09 12:27:57;;;;;;;;;;;;;;;;;;4980106;28;20315;-73
2022/01/09 12:30:24;;;;;;;;;;;;;;;;;;4981127;28;19929;-76
2022/01/09 12:32:50;;;;;;;;;;;;;;;;;;4983179;28;20021;-75
2022/01/09 12:35:17;;;;;;;;;;;;;;;;;;4982389;28;19926;-77
2022/01/09 12:37:45;;;;;;;;;;;;;;;;;;4999373;28;19949;-78
2022/01/09 12:40:12;;;;;;;;;;;;;;;;;;5008806;28;19914;-79
2022/01/09 12:42:41;;;;;;;;;;;;;;;;;;5111562;22;19949;-74
2022/01/09 12:45:09;;;;;;;;;;;;;;;;;;5032701;28;19933;-81
2022/01/09 12:50:19;;;;;;;;;;;;;;;;;;5018565;23;19930;-77
2022/01/09 12:52:46;;;;;;;;;;;;;;;;;;5010344;28;19930;-77
2022/01/09 12:55:13;;;;;;;;;;;;;;;;;;5010355;28;19999;-79
2022/01/09 12:57:40;;;;;;;;;;;;;;;;;;5010580;28;19972;-76
2022/01/09 13:00:07;;;;;;;;;;;;;;;;;;5004728;28;19992;-76
2022/01/09 13:02:37;;;;;;;;;;;;;;;;;;5006877;28;19926;-77
2022/01/09 13:05:04;;;;;;;;;;;;;;;;;;5006591;28;19933;-77
2022/01/09 13:07:31;;;;;;;;;;;;;;;;;;5012302;28;19932;-79
2022/01/09 13:10:00;;;;;;;;;;;;;;;;;;5010457;28;19958;-78
2022/01/09 13:12:27;;;;;;;;;;;;;;;;;;5010585;28;19930;-74
2022/01/09 13:14:54;;;;;;;;;;;;;;;;;;5010187;28;19929;-75
2022/01/09 13:17:22;;;;;;;;;;;;;;;;;;5007113;28;19933;-74
2022/01/09 13:19:49;;;;;;;;;;;;;;;;;;5010859;28;19926;-74
2022/01/09 13:22:16;;;;;;;;;;;;;;;;;;5005809;28;19976;-74
2022/01/09 13:24:43;;;;;;;;;;;;;;;;;;5003776;28;20368;-74
2022/01/09 13:27:11;;;;;;;;;;;;;;;;;;5000204;28;20399;-75
2022/01/09 13:29:42;;;;;;;;;;;;;;;;;;4999414;28;20440;-74
2022/01/09 13:32:09;;;;;;;;;;;;;;;;;;5004570;28;19961;-74
2022/01/09 13:34:36;;;;;;;;;;;;;;;;;;5009149;28;19929;-77
2022/01/09 13:37:07;;;;;;;;;;;;;;;;;;5004173;28;19926;-79
2022/01/09 13:39:34;;;;;;;;;;;;;;;;;;5011927;28;19944;-77
2022/01/09 13:42:02;;;;;;;;;;;;;;;;;;5006196;28;20020;-77
2022/01/09 13:44:29;;;;;;;;;;;;;;;;;;5007349;28;20752;-77
2022/01/09 13:46:55;;;;;;;;;;;;;;;;;;5008389;28;19980;-77
2022/01/09 13:49:23;;;;;;;;;;;;;;;;;;5007797;28;19935;-77
2022/01/09 13:51:50;;;;;;;;;;;;;;;;;;5009725;28;19925;-77
2022/01/09 13:54:16;;;;;;;;;;;;;;;;;;5012365;28;19925;-76
2022/01/09 13:56:44;;;;;;;;;;;;;;;;;;5008135;28;20337;-76
2022/01/09 13:59:11;;;;;;;;;;;;;;;;;;5015157;28;19926;-77
2022/01/09 14:01:38;;;;;;;;;;;;;;;;;;5007290;28;19931;-77
2022/01/09 14:04:04;;;;;;;;;;;;;;;;;;5008879;28;19968;-78
2022/01/09 14:06:33;;;;;;;;;;;;;;;;;;5008077;28;19933;-77
2022/01/09 14:09:00;;;;;;;;;;;;;;;;;;5009607;28;19937;-78
2022/01/09 14:11:27;;;;;;;;;;;;;;;;;;5007707;28;20330;-78
2022/01/09 14:13:54;;;;;;;;;;;;;;;;;;5007512;28;19925;-76
2022/01/09 14:16:21;;;;;;;;;;;;;;;;;;5008513;28;19932;-77
2022/01/09 14:18:48;;;;;;;;;;;;;;;;;;5007367;28;19935;-77
2022/01/09 14:21:15;;;;;;;;;;;;;;;;;;5008673;28;20338;-77
2022/01/09 14:23:42;;;;;;;;;;;;;;;;;;5009239;28;19936;-78
2022/01/09 14:26:09;;;;;;;;;;;;;;;;;;5009300;28;19965;-77
2022/01/09 14:28:36;;;;;;;;;;;;;;;;;;5005046;28;19934;-78
2022/01/09 14:31:03;;;;;;;;;;;;;;;;;;5006736;28;19929;-77
2022/01/09 14:33:31;;;;;;;;;;;;;;;;;;5010250;28;19953;-77
2022/01/09 14:35:58;;;;;;;;;;;;;;;;;;5010428;28;20303;-78
2022/01/09 14:38:25;;;;;;;;;;;;;;;;;;5009423;28;19961;-78
2022/01/09 14:40:52;;;;;;;;;;;;;;;;;;5009503;28;19933;-77
2022/01/09 14:43:19;;;;;;;;;;;;;;;;;;5005746;28;20395;-79
2022/01/09 14:45:46;;;;;;;;;;;;;;;;;;5008089;28;19933;-78
2022/01/09 14:48:12;;;;;;;;;;;;;;;;;;5010617;28;20032;-78
2022/01/09 14:50:40;;;;;;;;;;;;;;;;;;5009806;28;19929;-78
2022/01/09 14:53:07;;;;;;;;;;;;;;;;;;5007708;28;19996;-78
2022/01/09 14:55:37;;;;;;;;;;;;;;;;;;5009317;28;20009;-78
2022/01/09 14:58:04;;;;;;;;;;;;;;;;;;5010320;28;20368;-77
2022/01/09 15:00:34;;;;;;;;;;;;;;;;;;5008238;28;19972;-78
2022/01/09 15:03:01;;;;;;;;;;;;;;;;;;5009056;28;19977;-77
2022/01/09 15:05:28;;;;;;;;;;;;;;;;;;5011888;28;19939;-78
2022/01/09 15:07:55;;;;;;;;;;;;;;;;;;5012298;28;19934;-77
2022/01/09 15:10:22;;;;;;;;;;;;;;;;;;5007198;28;20012;-77
2022/01/09 15:12:49;;;;;;;;;;;;;;;;;;5004713;28;19955;-77
2022/01/09 15:15:17;;;;;;;;;;;;;;;;;;5008578;28;19948;-76
2022/01/09 15:17:44;;;;;;;;;;;;;;;;;;5009339;28;19932;-77
2022/01/09 15:20:11;;;;;;;;;;;;;;;;;;5007782;28;19925;-77
2022/01/09 15:22:37;;;;;;;;;;;;;;;;;;5009021;28;19979;-77
2022/01/09 15:25:04;;;;;;;;;;;;;;;;;;5008984;28;19945;-77
2022/01/09 15:27:31;;;;;;;;;;;;;;;;;;5005151;28;20753;-77
2022/01/09 15:29:59;;;;;;;;;;;;;;;;;;5011300;28;20293;-78
2022/01/09 15:32:26;;;;;;;;;;;;;;;;;;5008532;28;19933;-77
2022/01/09 15:34:52;;;;;;;;;;;;;;;;;;5016365;28;20024;-77
2022/01/09 15:37:19;;;;;;;;;;;;;;;;;;5016700;28;19933;-77
2022/01/09 15:39:47;;;;;;;;;;;;;;;;;;5014849;28;19965;-77
2022/01/09 15:42:14;;;;;;;;;;;;;;;;;;5008842;28;19933;-77
2022/01/09 15:44:41;;;;;;;;;;;;;;;;;;5009586;28;19934;-77
2022/01/09 15:47:08;;;;;;;;;;;;;;;;;;5009753;28;20384;-77
2022/01/09 15:49:35;;;;;;;;;;;;;;;;;;5009054;28;19929;-78
2022/01/09 15:52:04;;;;;;;;;;;;;;;;;;5011316;28;19960;-79
2022/01/09 15:54:31;;;;;;;;;;;;;;;;;;5017518;28;19981;-78
2022/01/09 15:56:58;;;;;;;;;;;;;;;;;;5013323;28;19956;-78
2022/01/09 15:59:25;;;;;;;;;;;;;;;;;;5011009;28;20259;-78
2022/01/09 16:01:52;;;;;;;;;;;;;;;;;;5012417;28;19971;-78
2022/01/09 16:04:19;;;;;;;;;;;;;;;;;;5013278;28;19925;-77
2022/01/09 16:06:47;;;;;;;;;;;;;;;;;;5012947;28;19925;-79
2022/01/09 16:09:14;;;;;;;;;;;;;;;;;;5009092;28;20451;-75
2022/01/09 16:11:41;;;;;;;;;;;;;;;;;;5004072;28;19940;-75
2022/01/09 16:14:08;;;;;;;;;;;;;;;;;;5002265;28;19937;-76
2022/01/09 16:16:35;;;;;;;;;;;;;;;;;;5008692;28;19932;-76
2022/01/09 16:19:03;;;;;;;;;;;;;;;;;;5000776;28;19929;-75
2022/01/09 16:21:29;;;;;;;;;;;;;;;;;;5009711;28;20340;-78
2022/01/09 16:23:59;;;;;;;;;;;;;;;;;;5017767;28;19934;-70
2022/01/09 16:26:26;;;;;;;;;;;;;;;;;;5039156;28;19932;-66
2022/01/09 16:34:13;;;;;;;;;;;;;;;;;;5246123;23;19909;-70
2022/01/09 16:36:40;;;;;;;;;;;;;;;;;;5090754;23;19933;-77
2022/01/09 16:49:49;;;;;;;;;;;;;;;;;;5059773;28;19920;-79
2022/01/09 16:54:51;;;;;;;;;;;;;;;;;;5027709;23;19936;-76
2022/01/09 16:57:18;;;;;;;;;;;;;;;;;;5010167;28;20059;-76
2022/01/09 16:59:45;;;;;;;;;;;;;;;;;;5011057;28;19925;-75
2022/01/09 17:02:12;;;;;;;;;;;;;;;;;;5011661;28;20856;-75
2022/01/09 17:04:39;;;;;;;;;;;;;;;;;;4991650;28;20329;-75
2022/01/09 17:07:06;;;;;;;;;;;;;;;;;;4982609;28;20011;-77